createdAt,value
2022-08-17T00:00:34.323Z,20.90
2022-08-17T00:03:10.559Z,20.90
2022-08-17T00:05:43.735Z,20.90
2022-08-17T00:08:12.526Z,20.90
2022-08-17T00:10:40.975Z,20.90
2022-08-17T00:13:16.735Z,20.90
2022-08-17T00:15:48.274Z,21.00
2022-08-17T00:19:01.382Z,21.10
2022-08-17T00:21:10.351Z,21.10
2022-08-17T00:23:44.500Z,21.10
2022-08-17T00:26:43.701Z,21.20
2022-08-17T00:29:06.610Z,21.40
2022-08-17T00:31:35.568Z,21.30
2022-08-17T00:34:05.031Z,21.10
2022-08-17T00:36:34.605Z,21.00
2022-08-17T00:39:02.951Z,20.90
2022-08-17T00:41:31.061Z,20.90
2022-08-17T00:44:02.874Z,20.80
2022-08-17T00:46:33.439Z,20.80
2022-08-17T00:49:01.580Z,20.80
2022-08-17T00:51:33.145Z,20.90
2022-08-17T00:54:13.120Z,21.00
2022-08-17T00:56:45.468Z,21.30
2022-08-17T00:59:18.760Z,21.30
2022-08-17T01:01:48.952Z,21.20
2022-08-17T01:04:19.016Z,21.10
2022-08-17T01:06:49.345Z,20.90
2022-08-17T01:09:19.897Z,20.90
2022-08-17T01:11:52.272Z,20.70
2022-08-17T01:14:21.626Z,20.60
2022-08-17T01:16:51.251Z,20.50
2022-08-17T01:19:22.749Z,20.50
2022-08-17T01:21:55.254Z,20.40
2022-08-17T01:24:24.941Z,20.40
2022-08-17T01:26:53.063Z,20.40
2022-08-17T01:29:25.579Z,20.30
2022-08-17T01:31:58.371Z,20.30
2022-08-17T01:34:36.860Z,20.20
2022-08-17T01:37:12.129Z,20.20
2022-08-17T01:39:46.343Z,20.20
2022-08-17T01:42:22.008Z,20.20
2022-08-17T01:44:54.040Z,20.20
2022-08-17T01:47:22.209Z,20.10
2022-08-17T01:49:50.728Z,20.10
2022-08-17T01:52:19.372Z,20.10
2022-08-17T01:54:51.297Z,20.10
2022-08-17T01:57:19.653Z,20.10
2022-08-17T01:59:47.759Z,20.10
2022-08-17T02:02:31.029Z,20.10
2022-08-17T02:05:00.236Z,20.10
2022-08-17T02:07:28.361Z,20.10
2022-08-17T02:09:57.959Z,20.10
2022-08-17T02:12:38.359Z,20.20
2022-08-17T02:15:09.631Z,20.20
2022-08-17T02:17:37.702Z,20.30
2022-08-17T02:20:07.415Z,20.20
2022-08-17T02:22:36.547Z,20.20
2022-08-17T02:25:09.589Z,20.10
2022-08-17T02:27:40.668Z,20.10
2022-08-17T02:30:59.741Z,20.00
2022-08-17T02:33:04.319Z,20.00
2022-08-17T02:35:34.628Z,20.00
2022-08-17T02:38:02.841Z,20.00
2022-08-17T02:40:35.987Z,20.00
2022-08-17T02:43:05.237Z,19.90
2022-08-17T02:45:33.429Z,19.90
2022-08-17T02:48:01.583Z,19.80
2022-08-17T02:50:29.855Z,19.80
2022-08-17T02:53:01.635Z,19.80
2022-08-17T02:55:32.887Z,19.80
2022-08-17T02:58:01.677Z,19.70
2022-08-17T03:00:33.985Z,19.70
2022-08-17T03:03:02.932Z,19.70
2022-08-17T03:05:33.467Z,19.70
2022-08-17T03:08:01.818Z,20.00
2022-08-17T03:10:30.225Z,20.10
2022-08-17T03:12:59.708Z,20.00
2022-08-17T03:15:30.450Z,19.90
2022-08-17T03:18:01.700Z,19.90
2022-08-17T03:20:32.470Z,19.90
2022-08-17T03:23:01.971Z,19.80
2022-08-17T03:25:34.485Z,19.80
2022-08-17T03:28:04.731Z,19.80
2022-08-17T03:30:33.617Z,19.70
2022-08-17T03:33:04.158Z,19.60
2022-08-17T03:35:36.526Z,19.60
2022-08-17T03:38:05.519Z,19.50
2022-08-17T03:40:55.332Z,19.50
2022-08-17T03:43:23.867Z,19.60
2022-08-17T03:46:24.900Z,19.50
2022-08-17T03:49:15.002Z,19.50
2022-08-17T03:52:00.668Z,19.50
2022-08-17T03:54:46.088Z,19.70
2022-08-17T03:57:14.279Z,19.80
2022-08-17T03:59:45.173Z,19.90
2022-08-17T04:02:18.367Z,19.90
2022-08-17T04:04:46.916Z,20.00
2022-08-17T04:07:15.006Z,20.00
2022-08-17T04:09:43.537Z,20.10
2022-08-17T04:12:11.716Z,20.10
2022-08-17T04:14:53.588Z,20.20
2022-08-17T04:17:26.873Z,20.30
2022-08-17T04:19:56.279Z,20.50
2022-08-17T04:22:32.283Z,20.80
2022-08-17T04:25:08.415Z,21.10
2022-08-17T04:27:36.838Z,21.40
2022-08-17T04:30:07.914Z,21.50
2022-08-17T04:33:03.436Z,21.60
2022-08-17T04:35:39.412Z,21.60
2022-08-17T04:38:13.915Z,21.70
2022-08-17T04:41:02.178Z,22.00
2022-08-17T04:43:32.038Z,22.60
2022-08-17T04:46:01.890Z,23.10
2022-08-17T04:48:35.980Z,23.70
2022-08-17T04:51:08.222Z,24.30
2022-08-17T04:53:36.553Z,24.80
2022-08-17T04:56:05.108Z,25.40
2022-08-17T04:58:36.258Z,25.90
2022-08-17T05:01:05.909Z,26.10
2022-08-17T05:03:36.156Z,26.50
2022-08-17T05:06:04.921Z,26.80
2022-08-17T05:08:33.021Z,27.10
2022-08-17T05:11:01.261Z,27.40
2022-08-17T05:13:30.653Z,27.90
2022-08-17T05:16:01.312Z,27.90
2022-08-17T05:18:30.686Z,28.20
2022-08-17T05:21:00.973Z,28.60
2022-08-17T05:23:38.491Z,28.90
2022-08-17T05:26:25.925Z,29.20
2022-08-17T05:29:00.586Z,29.40
2022-08-17T05:31:31.640Z,29.20
2022-08-17T05:34:01.054Z,28.60
2022-08-17T05:36:41.658Z,28.60
2022-08-17T05:39:16.265Z,28.40
2022-08-17T05:41:46.763Z,28.30
2022-08-17T05:44:15.142Z,28.10
2022-08-17T05:46:48.452Z,28.40
2022-08-17T05:49:19.992Z,29.00
2022-08-17T05:52:13.104Z,29.70
2022-08-17T05:54:55.779Z,29.90
2022-08-17T05:57:42.127Z,30.20
2022-08-17T06:00:20.332Z,30.10
2022-08-17T06:03:01.603Z,30.40
2022-08-17T06:05:42.373Z,30.90
2022-08-17T06:08:20.305Z,30.70
2022-08-17T06:10:58.334Z,30.40
2022-08-17T06:13:39.911Z,30.40
2022-08-17T06:16:33.655Z,30.20
2022-08-17T06:19:03.176Z,30.20
2022-08-17T06:21:35.287Z,30.60
2022-08-17T06:24:16.641Z,30.90
2022-08-17T06:26:45.577Z,31.10
2022-08-17T06:29:23.714Z,30.90
2022-08-17T06:31:52.097Z,30.80
2022-08-17T06:34:21.726Z,30.80
2022-08-17T06:36:57.939Z,30.90
2022-08-17T06:39:40.835Z,31.00
2022-08-17T06:42:54.686Z,29.70
2022-08-17T06:45:14.753Z,29.60
2022-08-17T06:47:51.045Z,29.50
2022-08-17T06:50:23.287Z,28.80
2022-08-17T06:52:58.591Z,29.30
2022-08-17T06:55:38.138Z,29.40
2022-08-17T06:58:15.813Z,29.80
2022-08-17T07:00:47.696Z,30.40
2022-08-17T07:03:27.705Z,30.70
2022-08-17T07:06:00.085Z,30.90
2022-08-17T07:08:35.435Z,31.30
2022-08-17T07:11:09.798Z,31.80
2022-08-17T07:13:51.526Z,31.80
2022-08-17T07:16:25.957Z,32.20
2022-08-17T07:18:57.229Z,32.10
2022-08-17T07:21:39.435Z,31.80
2022-08-17T07:24:29.448Z,32.30
2022-08-17T07:27:09.920Z,31.80
2022-08-17T07:29:41.822Z,31.80
2022-08-17T07:32:12.471Z,31.70
2022-08-17T07:35:18.303Z,31.50
2022-08-17T07:37:54.162Z,31.60
2022-08-17T07:40:27.617Z,31.90
2022-08-17T07:43:22.304Z,32.20
2022-08-17T07:46:32.747Z,32.40
2022-08-17T07:49:23.290Z,32.20
2022-08-17T07:52:48.025Z,32.20
2022-08-17T07:54:49.328Z,32.30
2022-08-17T07:57:31.118Z,32.60
2022-08-17T08:00:16.946Z,32.30
2022-08-17T08:02:48.418Z,32.40
2022-08-17T08:05:30.688Z,31.80
2022-08-17T08:08:25.432Z,31.20
2022-08-17T08:11:05.529Z,30.50
2022-08-17T08:13:34.550Z,30.00
2022-08-17T08:16:22.694Z,29.90
2022-08-17T08:18:56.761Z,29.60
2022-08-17T08:21:46.451Z,29.40
2022-08-17T08:24:40.108Z,29.10
2022-08-17T08:27:19.832Z,28.80
2022-08-17T08:29:55.149Z,29.20
2022-08-17T08:32:40.486Z,29.10
2022-08-17T08:35:12.110Z,29.00
2022-08-17T08:37:49.360Z,29.20
2022-08-17T08:40:36.425Z,29.30
2022-08-17T08:43:11.747Z,29.20
2022-08-17T08:45:47.477Z,29.20
2022-08-17T08:48:53.855Z,29.10
2022-08-17T08:51:31.981Z,29.10
2022-08-17T08:54:07.986Z,29.20
2022-08-17T08:56:58.969Z,29.00
2022-08-17T08:59:35.978Z,29.00
2022-08-17T09:02:34.680Z,28.80
2022-08-17T09:05:15.711Z,28.70
2022-08-17T09:07:56.318Z,28.70
2022-08-17T09:10:29.421Z,28.80
2022-08-17T09:13:10.081Z,28.80
2022-08-17T09:15:43.512Z,29.00
2022-08-17T09:19:02.303Z,29.20
2022-08-17T09:21:12.391Z,29.30
2022-08-17T09:23:46.728Z,29.30
2022-08-17T09:26:21.079Z,29.30
2022-08-17T09:28:51.712Z,29.40
2022-08-17T09:31:31.297Z,29.40
2022-08-17T09:34:05.796Z,29.40
2022-08-17T09:36:42.342Z,29.40
2022-08-17T09:39:16.045Z,29.40
2022-08-17T09:41:49.814Z,29.60
2022-08-17T09:44:28.015Z,29.70
2022-08-17T09:47:03.413Z,29.90
2022-08-17T09:49:40.069Z,30.00
2022-08-17T09:52:18.179Z,30.20
2022-08-17T09:54:47.041Z,30.20
2022-08-17T09:57:32.492Z,30.30
2022-08-17T10:00:17.035Z,30.40
2022-08-17T10:03:19.029Z,30.50
2022-08-17T10:05:56.271Z,30.40
2022-08-17T10:08:35.316Z,30.50
2022-08-17T10:11:19.241Z,30.90
2022-08-17T10:13:56.341Z,30.80
2022-08-17T10:16:37.390Z,30.80
2022-08-17T10:19:14.838Z,30.80
2022-08-17T10:22:32.528Z,31.00
2022-08-17T10:25:22.261Z,30.70
2022-08-17T10:27:56.238Z,30.30
2022-08-17T10:30:26.612Z,30.70
2022-08-17T10:32:59.180Z,30.70
2022-08-17T10:35:34.198Z,30.90
2022-08-17T10:38:28.593Z,30.90
2022-08-17T10:41:04.791Z,31.10
2022-08-17T10:44:35.383Z,31.20
2022-08-17T10:46:52.430Z,31.20
2022-08-17T10:49:29.424Z,31.10
2022-08-17T10:51:59.911Z,31.20
2022-08-17T10:54:40.875Z,31.30
2022-08-17T10:57:42.601Z,31.30
2022-08-17T11:00:15.981Z,31.20
2022-08-17T11:02:49.602Z,31.30
2022-08-17T11:05:46.985Z,31.40
2022-08-17T11:08:42.363Z,31.50
2022-08-17T11:11:37.681Z,31.60
2022-08-17T11:14:23.955Z,31.60
2022-08-17T11:17:11.296Z,31.40
2022-08-17T11:20:09.636Z,31.40
2022-08-17T11:23:13.226Z,31.60
2022-08-17T11:25:45.067Z,31.50
2022-08-17T11:28:19.407Z,31.40
2022-08-17T11:30:52.214Z,31.20
2022-08-17T11:33:59.304Z,31.10
2022-08-17T11:37:04.084Z,31.30
2022-08-17T11:40:06.465Z,31.40
2022-08-17T11:42:56.453Z,31.50
2022-08-17T11:45:56.044Z,32.00
2022-08-17T11:48:50.755Z,32.30
2022-08-17T11:51:35.161Z,31.80
2022-08-17T11:54:31.552Z,32.00
2022-08-17T11:56:59.028Z,32.10
2022-08-17T11:59:57.682Z,32.00
2022-08-17T12:02:39.067Z,32.00
2022-08-17T12:05:40.587Z,32.20
2022-08-17T12:08:20.043Z,31.90
2022-08-17T12:10:59.900Z,32.00
2022-08-17T12:13:30.491Z,31.90
2022-08-17T12:16:07.204Z,32.10
2022-08-17T12:18:39.497Z,32.40
2022-08-17T12:21:32.694Z,32.60
2022-08-17T12:24:10.230Z,32.40
2022-08-17T12:26:38.785Z,32.40
2022-08-17T12:29:18.211Z,32.30
2022-08-17T12:32:02.104Z,32.00
2022-08-17T12:34:37.872Z,31.90
2022-08-17T12:37:09.121Z,31.90
2022-08-17T12:39:52.278Z,32.20
2022-08-17T12:42:26.153Z,32.30
2022-08-17T12:44:54.220Z,32.40
2022-08-17T12:47:23.290Z,32.80
2022-08-17T12:49:55.152Z,32.90
2022-08-17T12:52:26.654Z,32.70
2022-08-17T12:54:58.003Z,33.10
2022-08-17T12:57:32.703Z,32.80
2022-08-17T13:00:03.569Z,32.80
2022-08-17T13:02:45.125Z,33.30
2022-08-17T13:05:23.051Z,33.00
2022-08-17T13:07:54.560Z,33.10
2022-08-17T13:10:32.429Z,33.10
2022-08-17T13:13:04.919Z,32.70
2022-08-17T13:15:52.450Z,32.60
2022-08-17T13:18:40.442Z,32.40
2022-08-17T13:21:26.826Z,32.50
2022-08-17T13:24:01.374Z,32.40
2022-08-17T13:26:33.879Z,32.20
2022-08-17T13:29:03.529Z,32.00
2022-08-17T13:31:49.222Z,32.20
2022-08-17T13:35:06.520Z,32.50
2022-08-17T13:37:33.287Z,32.40
2022-08-17T13:40:31.023Z,32.70
2022-08-17T13:42:59.537Z,33.00
2022-08-17T13:45:53.137Z,33.40
2022-08-17T13:48:26.813Z,33.20
2022-08-17T13:51:08.274Z,33.30
2022-08-17T13:53:56.845Z,33.30
2022-08-17T13:56:38.056Z,32.70
2022-08-17T13:59:11.454Z,32.70
2022-08-17T14:01:43.068Z,32.90
2022-08-17T14:04:14.719Z,32.90
2022-08-17T14:06:52.929Z,32.90
2022-08-17T14:09:25.806Z,32.80
2022-08-17T14:12:00.044Z,32.60
2022-08-17T14:14:29.266Z,32.90
2022-08-17T14:16:58.047Z,32.70
2022-08-17T14:19:26.919Z,32.90
2022-08-17T14:21:56.566Z,33.00
2022-08-17T14:24:29.348Z,33.20
2022-08-17T14:26:59.170Z,33.10
2022-08-17T14:29:29.832Z,33.00
2022-08-17T14:31:59.200Z,32.70
2022-08-17T14:34:27.398Z,32.60
2022-08-17T14:36:56.908Z,32.70
2022-08-17T14:39:26.408Z,32.90
2022-08-17T14:41:56.066Z,32.80
2022-08-17T14:44:24.165Z,32.80
2022-08-17T14:46:54.242Z,32.80
2022-08-17T14:49:22.339Z,32.90
2022-08-17T14:51:50.658Z,32.80
2022-08-17T14:54:28.866Z,33.00
2022-08-17T14:57:25.222Z,32.70
2022-08-17T14:59:56.632Z,32.50
2022-08-17T15:02:30.003Z,32.60
2022-08-17T15:05:03.616Z,32.50
2022-08-17T15:07:32.027Z,32.30
2022-08-17T15:10:02.257Z,32.30
2022-08-17T15:12:34.302Z,32.30
2022-08-17T15:15:04.946Z,32.10
2022-08-17T15:17:44.801Z,31.80
2022-08-17T15:20:17.194Z,32.00
2022-08-17T15:22:46.863Z,31.90
2022-08-17T15:25:17.673Z,31.90
2022-08-17T15:27:47.477Z,31.90
2022-08-17T15:30:16.523Z,31.90
2022-08-17T15:32:50.605Z,32.00
2022-08-17T15:35:28.014Z,32.10
2022-08-17T15:37:58.716Z,32.10
2022-08-17T15:40:36.666Z,32.20
2022-08-17T15:43:11.976Z,32.40
2022-08-17T15:45:40.905Z,32.50
2022-08-17T15:48:09.487Z,32.50
2022-08-17T15:50:38.194Z,32.50
2022-08-17T15:53:06.496Z,32.40
2022-08-17T15:55:36.652Z,32.70
2022-08-17T15:58:05.176Z,32.50
2022-08-17T16:00:42.020Z,32.70
2022-08-17T16:04:01.580Z,32.90
2022-08-17T16:06:13.719Z,32.90
2022-08-17T16:08:44.497Z,32.60
2022-08-17T16:11:14.066Z,32.40
2022-08-17T16:13:51.306Z,31.90
2022-08-17T16:16:24.828Z,31.80
2022-08-17T16:18:58.493Z,32.10
2022-08-17T16:21:29.532Z,31.90
2022-08-17T16:24:01.250Z,32.00
2022-08-17T16:26:32.551Z,32.00
2022-08-17T16:29:02.975Z,32.10
2022-08-17T16:31:32.902Z,31.90
2022-08-17T16:34:16.813Z,31.80
2022-08-17T16:36:54.750Z,31.80
2022-08-17T16:39:26.350Z,31.80
2022-08-17T16:41:54.784Z,31.60
2022-08-17T16:44:23.487Z,31.60
2022-08-17T16:46:53.422Z,31.30
2022-08-17T16:49:27.589Z,31.10
2022-08-17T16:52:06.879Z,30.90
2022-08-17T16:54:35.902Z,30.80
2022-08-17T16:57:05.880Z,30.70
2022-08-17T16:59:40.789Z,30.60
2022-08-17T17:02:14.998Z,30.50
2022-08-17T17:04:52.107Z,30.40
2022-08-17T17:07:35.478Z,30.40
2022-08-17T17:10:09.398Z,30.40
2022-08-17T17:13:02.427Z,30.30
2022-08-17T17:15:35.571Z,30.20
2022-08-17T17:18:11.617Z,30.20
2022-08-17T17:20:48.700Z,30.20
2022-08-17T17:23:46.377Z,30.10
2022-08-17T17:26:28.500Z,30.10
2022-08-17T17:29:18.310Z,30.10
2022-08-17T17:31:56.125Z,30.10
2022-08-17T17:34:36.044Z,30.10
2022-08-17T17:37:08.795Z,30.00
2022-08-17T17:39:43.892Z,29.90
2022-08-17T17:42:20.158Z,29.90
2022-08-17T17:44:53.724Z,29.80
2022-08-17T17:47:22.834Z,29.80
2022-08-17T17:49:52.417Z,29.70
2022-08-17T17:52:27.504Z,29.70
2022-08-17T17:55:04.684Z,29.60
2022-08-17T17:57:48.044Z,29.60
2022-08-17T18:00:19.636Z,29.50
2022-08-17T18:02:59.952Z,29.40
2022-08-17T18:05:50.499Z,29.50
2022-08-17T18:08:37.254Z,29.30
2022-08-17T18:11:24.498Z,29.40
2022-08-17T18:14:14.613Z,29.30
2022-08-17T18:16:43.802Z,29.30
2022-08-17T18:19:14.686Z,29.20
2022-08-17T18:21:49.333Z,29.10
2022-08-17T18:24:30.519Z,29.00
2022-08-17T18:27:00.144Z,28.90
2022-08-17T18:29:45.232Z,29.00
2022-08-17T18:32:31.292Z,28.90
2022-08-17T18:35:02.682Z,28.70
2022-08-17T18:37:39.474Z,28.80
2022-08-17T18:40:35.678Z,28.70
2022-08-17T18:43:24.396Z,28.70
2022-08-17T18:45:54.973Z,28.80
2022-08-17T18:48:29.956Z,28.70
2022-08-17T18:51:07.482Z,28.60
2022-08-17T18:56:32.359Z,28.50
2022-08-17T18:59:10.466Z,28.50
2022-08-17T19:01:52.744Z,28.50
2022-08-17T19:04:34.965Z,28.50
2022-08-17T19:07:23.148Z,28.40
2022-08-17T19:09:59.223Z,28.40
2022-08-17T19:12:34.391Z,28.30
2022-08-17T19:15:03.470Z,28.30
2022-08-17T19:17:42.458Z,28.30
2022-08-17T19:20:18.523Z,28.20
2022-08-17T19:23:01.495Z,28.30
2022-08-17T19:25:33.425Z,28.20
2022-08-17T19:28:21.715Z,28.10
2022-08-17T19:30:57.606Z,28.10
2022-08-17T19:33:26.411Z,28.00
2022-08-17T19:36:06.404Z,28.00
2022-08-17T19:38:45.731Z,28.00
2022-08-17T19:41:24.390Z,27.90
2022-08-17T19:44:18.091Z,27.90
2022-08-17T19:46:56.245Z,27.90
2022-08-17T19:49:40.925Z,27.80
2022-08-17T19:52:24.094Z,27.70
2022-08-17T19:54:59.827Z,27.70
2022-08-17T19:57:40.736Z,27.70
2022-08-17T20:00:13.432Z,27.70
2022-08-17T20:02:51.113Z,27.50
2022-08-17T20:05:23.577Z,27.50
2022-08-17T20:07:56.615Z,27.50
2022-08-17T20:10:38.244Z,27.40
2022-08-17T20:13:11.023Z,27.30
2022-08-17T20:15:44.096Z,27.30
2022-08-17T20:18:21.115Z,27.30
2022-08-17T20:20:57.402Z,27.20
2022-08-17T20:23:45.759Z,27.30
2022-08-17T20:26:22.340Z,27.20
2022-08-17T20:29:10.884Z,27.20
2022-08-17T20:31:48.591Z,27.20
2022-08-17T20:34:39.618Z,27.20
2022-08-17T20:37:11.057Z,27.20
2022-08-17T20:39:43.549Z,27.10
2022-08-17T20:42:30.425Z,27.10
2022-08-17T20:45:02.400Z,27.10
2022-08-17T20:47:35.299Z,27.10
2022-08-17T20:50:06.931Z,27.00
2022-08-17T20:52:59.365Z,27.00
2022-08-17T20:55:55.742Z,26.80
2022-08-17T20:58:46.625Z,26.70
2022-08-17T21:01:24.123Z,26.70
2022-08-17T21:03:56.739Z,26.70
2022-08-17T21:06:26.398Z,26.60
2022-08-17T21:08:58.988Z,26.60
2022-08-17T21:11:56.870Z,26.50
2022-08-17T21:14:53.804Z,26.40
2022-08-17T21:17:43.568Z,26.30
2022-08-17T21:20:32.213Z,26.30
2022-08-17T21:23:21.637Z,26.30
2022-08-17T21:26:13.557Z,26.30
2022-08-17T21:29:00.728Z,26.20
2022-08-17T21:31:35.363Z,26.20
2022-08-17T21:34:28.735Z,26.10
2022-08-17T21:37:29.884Z,26.00
2022-08-17T21:40:02.829Z,26.00
2022-08-17T21:42:35.785Z,25.90
2022-08-17T21:45:12.209Z,25.90
2022-08-17T21:47:49.797Z,25.90
2022-08-17T21:50:24.606Z,25.90
2022-08-17T21:52:59.632Z,25.80
2022-08-17T21:55:32.865Z,25.80
2022-08-17T21:58:14.569Z,25.70
2022-08-17T22:00:46.172Z,25.70
2022-08-17T22:03:26.114Z,25.70
2022-08-17T22:05:55.143Z,25.70
2022-08-17T22:08:34.076Z,25.70
2022-08-17T22:11:10.140Z,25.60
2022-08-17T22:13:44.091Z,25.60
2022-08-17T22:16:29.419Z,25.50
2022-08-17T22:19:01.986Z,25.50
2022-08-17T22:21:32.342Z,25.60
2022-08-17T22:24:18.016Z,25.50
2022-08-17T22:27:10.304Z,25.50
2022-08-17T22:29:57.391Z,25.40
2022-08-17T22:32:39.274Z,25.40
2022-08-17T22:35:41.853Z,25.40
2022-08-17T22:38:34.328Z,25.40
2022-08-17T22:41:32.791Z,25.40
2022-08-17T22:44:09.140Z,25.50
2022-08-17T22:46:59.157Z,25.50
2022-08-17T22:49:53.328Z,25.40
2022-08-17T22:52:33.617Z,25.40
2022-08-17T22:55:30.111Z,25.40
2022-08-17T22:58:29.408Z,25.30
2022-08-17T23:01:23.074Z,25.30
2022-08-17T23:03:57.151Z,25.20
2022-08-17T23:06:25.847Z,25.20
2022-08-17T23:08:56.321Z,25.10
2022-08-17T23:11:36.970Z,25.10
2022-08-17T23:14:19.131Z,25.00
2022-08-17T23:16:47.770Z,24.90
2022-08-17T23:19:22.033Z,24.90
2022-08-17T23:21:54.389Z,25.00
2022-08-17T23:24:28.605Z,24.90
2022-08-17T23:26:59.926Z,25.00
2022-08-17T23:29:39.243Z,24.90
2022-08-17T23:32:08.046Z,24.90
2022-08-17T23:34:38.674Z,24.90
2022-08-17T23:37:10.549Z,24.90
2022-08-17T23:39:39.576Z,24.80
2022-08-17T23:42:12.087Z,24.90
2022-08-17T23:44:43.990Z,24.80
2022-08-17T23:47:12.339Z,24.80
2022-08-17T23:49:41.366Z,24.80
2022-08-17T23:52:12.670Z,24.80
2022-08-17T23:54:48.004Z,24.80
2022-08-17T23:57:20.421Z,24.70
